sensor_id;sensor_type;location;lat;lon;timestamp;P1;durP1;ratioP1;P2;durP2;ratioP2
47483;SDS011;54076;50.322;18.650;2022-12-18T00:04:37;35.20;;;12.20;;
47483;SDS011;54076;50.322;18.650;2022-12-18T00:09:38;36.80;;;13.30;;
47483;SDS011;54076;50.322;18.650;2022-12-18T00:14:39;41.60;;;13.60;;
47483;SDS011;54076;50.322;18.650;2022-12-18T00:19:40;38.80;;;12.40;;
47483;SDS011;54076;50.322;18.650;2022-12-18T00:24:41;42.60;;;13.50;;
47483;SDS011;54076;50.322;18.650;2022-12-18T00:29:42;42.40;;;14.70;;
47483;SDS011;54076;50.322;18.650;2022-12-18T00:34:43;48.30;;;14.40;;
47483;SDS011;54076;50.322;18.650;2022-12-18T00:39:44;45.10;;;14.90;;
47483;SDS011;54076;50.322;18.650;2022-12-18T00:44:45;42.60;;;13.50;;
47483;SDS011;54076;50.322;18.650;2022-12-18T00:49:46;39.90;;;13.00;;
47483;SDS011;54076;50.322;18.650;2022-12-18T00:54:47;38.50;;;12.80;;
47483;SDS011;54076;50.322;18.650;2022-12-18T00:59:48;41.00;;;13.80;;
47483;SDS011;54076;50.322;18.650;2022-12-18T01:04:49;36.20;;;12.70;;
47483;SDS011;54076;50.322;18.650;2022-12-18T01:09:50;35.60;;;12.00;;
47483;SDS011;54076;50.322;18.650;2022-12-18T01:14:51;38.50;;;13.40;;
47483;SDS011;54076;50.322;18.650;2022-12-18T01:19:52;36.40;;;12.80;;
47483;SDS011;54076;50.322;18.650;2022-12-18T01:24:54;37.60;;;11.80;;
47483;SDS011;54076;50.322;18.650;2022-12-18T01:29:55;41.10;;;12.80;;
47483;SDS011;54076;50.322;18.650;2022-12-18T01:34:56;40.90;;;13.00;;
47483;SDS011;54076;50.322;18.650;2022-12-18T01:39:57;37.70;;;12.40;;
47483;SDS011;54076;50.322;18.650;2022-12-18T01:45:05;36.10;;;12.60;;
47483;SDS011;54076;50.322;18.650;2022-12-18T01:55:22;36.10;;;12.70;;
47483;SDS011;54076;50.322;18.650;2022-12-18T02:00:27;39.30;;;13.40;;
47483;SDS011;54076;50.322;18.650;2022-12-18T02:06:09;38.10;;;13.20;;
47483;SDS011;54076;50.322;18.650;2022-12-18T02:17:10;40.30;;;12.20;;
47483;SDS011;54076;50.322;18.650;2022-12-18T02:27:34;38.90;;;11.90;;
47483;SDS011;54076;50.322;18.650;2022-12-18T02:32:41;41.90;;;13.20;;
47483;SDS011;54076;50.322;18.650;2022-12-18T02:37:46;34.60;;;12.20;;
47483;SDS011;54076;50.322;18.650;2022-12-18T02:42:48;42.70;;;12.70;;
47483;SDS011;54076;50.322;18.650;2022-12-18T02:47:49;36.50;;;11.60;;
47483;SDS011;54076;50.322;18.650;2022-12-18T02:52:57;34.50;;;12.70;;
47483;SDS011;54076;50.322;18.650;2022-12-18T02:58:40;38.40;;;12.20;;
47483;SDS011;54076;50.322;18.650;2022-12-18T03:04:16;40.50;;;12.80;;
47483;SDS011;54076;50.322;18.650;2022-12-18T03:09:31;36.30;;;13.00;;
47483;SDS011;54076;50.322;18.650;2022-12-18T03:14:38;43.30;;;13.80;;
47483;SDS011;54076;50.322;18.650;2022-12-18T03:19:42;39.30;;;11.90;;
47483;SDS011;54076;50.322;18.650;2022-12-18T03:24:46;39.70;;;12.80;;
47483;SDS011;54076;50.322;18.650;2022-12-18T03:30:09;42.80;;;13.60;;
47483;SDS011;54076;50.322;18.650;2022-12-18T03:35:16;37.30;;;12.80;;
47483;SDS011;54076;50.322;18.650;2022-12-18T03:45:53;39.60;;;13.30;;
47483;SDS011;54076;50.322;18.650;2022-12-18T03:51:10;41.00;;;13.60;;
47483;SDS011;54076;50.322;18.650;2022-12-18T03:56:18;43.00;;;14.00;;
47483;SDS011;54076;50.322;18.650;2022-12-18T04:01:35;37.90;;;13.70;;
47483;SDS011;54076;50.322;18.650;2022-12-18T04:06:40;41.90;;;12.40;;
47483;SDS011;54076;50.322;18.650;2022-12-18T04:11:43;44.60;;;14.20;;
47483;SDS011;54076;50.322;18.650;2022-12-18T04:16:47;42.40;;;14.90;;
47483;SDS011;54076;50.322;18.650;2022-12-18T04:21:48;46.50;;;13.60;;
47483;SDS011;54076;50.322;18.650;2022-12-18T04:26:49;44.30;;;15.40;;
47483;SDS011;54076;50.322;18.650;2022-12-18T04:31:50;48.00;;;15.90;;
47483;SDS011;54076;50.322;18.650;2022-12-18T04:36:51;47.10;;;14.50;;
47483;SDS011;54076;50.322;18.650;2022-12-18T04:41:52;47.00;;;15.30;;
47483;SDS011;54076;50.322;18.650;2022-12-18T04:46:53;46.40;;;14.90;;
47483;SDS011;54076;50.322;18.650;2022-12-18T04:51:54;44.10;;;14.20;;
47483;SDS011;54076;50.322;18.650;2022-12-18T04:56:55;45.40;;;14.50;;
47483;SDS011;54076;50.322;18.650;2022-12-18T05:01:56;46.00;;;14.60;;
47483;SDS011;54076;50.322;18.650;2022-12-18T05:06:57;44.40;;;14.20;;
47483;SDS011;54076;50.322;18.650;2022-12-18T05:11:58;39.40;;;13.60;;
47483;SDS011;54076;50.322;18.650;2022-12-18T05:16:59;51.00;;;15.20;;
47483;SDS011;54076;50.322;18.650;2022-12-18T05:22:00;47.00;;;15.10;;
47483;SDS011;54076;50.322;18.650;2022-12-18T05:27:02;47.70;;;16.20;;
47483;SDS011;54076;50.322;18.650;2022-12-18T05:32:03;46.10;;;16.10;;
47483;SDS011;54076;50.322;18.650;2022-12-18T05:37:04;53.20;;;17.50;;
47483;SDS011;54076;50.322;18.650;2022-12-18T05:42:05;73.10;;;19.50;;
47483;SDS011;54076;50.322;18.650;2022-12-18T05:47:06;62.80;;;19.10;;
47483;SDS011;54076;50.322;18.650;2022-12-18T05:52:07;67.40;;;19.30;;
47483;SDS011;54076;50.322;18.650;2022-12-18T05:57:09;68.40;;;21.30;;
47483;SDS011;54076;50.322;18.650;2022-12-18T06:02:10;68.70;;;19.60;;
47483;SDS011;54076;50.322;18.650;2022-12-18T06:07:11;68.80;;;19.70;;
47483;SDS011;54076;50.322;18.650;2022-12-18T06:12:13;68.60;;;19.50;;
47483;SDS011;54076;50.322;18.650;2022-12-18T06:17:14;60.10;;;19.50;;
47483;SDS011;54076;50.322;18.650;2022-12-18T06:22:15;62.40;;;19.60;;
47483;SDS011;54076;50.322;18.650;2022-12-18T06:27:17;61.70;;;19.70;;
47483;SDS011;54076;50.322;18.650;2022-12-18T06:32:18;59.70;;;18.00;;
47483;SDS011;54076;50.322;18.650;2022-12-18T06:37:19;60.50;;;17.90;;
47483;SDS011;54076;50.322;18.650;2022-12-18T06:42:20;60.60;;;17.30;;
47483;SDS011;54076;50.322;18.650;2022-12-18T06:47:21;65.00;;;18.00;;
47483;SDS011;54076;50.322;18.650;2022-12-18T06:52:22;55.70;;;16.90;;
47483;SDS011;54076;50.322;18.650;2022-12-18T06:57:23;50.10;;;16.50;;
47483;SDS011;54076;50.322;18.650;2022-12-18T07:02:24;53.10;;;15.50;;
47483;SDS011;54076;50.322;18.650;2022-12-18T07:07:25;56.90;;;16.10;;
47483;SDS011;54076;50.322;18.650;2022-12-18T07:12:29;50.50;;;15.50;;
47483;SDS011;54076;50.322;18.650;2022-12-18T07:17:30;50.30;;;15.90;;
47483;SDS011;54076;50.322;18.650;2022-12-18T07:22:31;50.90;;;15.10;;
47483;SDS011;54076;50.322;18.650;2022-12-18T07:27:32;51.50;;;16.30;;
47483;SDS011;54076;50.322;18.650;2022-12-18T07:32:33;50.70;;;15.50;;
47483;SDS011;54076;50.322;18.650;2022-12-18T07:37:35;46.70;;;15.50;;
47483;SDS011;54076;50.322;18.650;2022-12-18T07:42:36;43.20;;;15.20;;
47483;SDS011;54076;50.322;18.650;2022-12-18T07:47:37;41.20;;;14.60;;
47483;SDS011;54076;50.322;18.650;2022-12-18T07:52:38;48.70;;;14.80;;
47483;SDS011;54076;50.322;18.650;2022-12-18T07:57:39;43.90;;;13.80;;
47483;SDS011;54076;50.322;18.650;2022-12-18T08:02:40;50.30;;;16.20;;
47483;SDS011;54076;50.322;18.650;2022-12-18T08:07:41;52.40;;;15.20;;
47483;SDS011;54076;50.322;18.650;2022-12-18T08:12:42;47.90;;;14.50;;
47483;SDS011;54076;50.322;18.650;2022-12-18T08:17:43;46.80;;;15.30;;
47483;SDS011;54076;50.322;18.650;2022-12-18T08:22:44;48.30;;;15.30;;
47483;SDS011;54076;50.322;18.650;2022-12-18T08:27:46;60.80;;;19.40;;
47483;SDS011;54076;50.322;18.650;2022-12-18T08:32:47;50.30;;;16.70;;
47483;SDS011;54076;50.322;18.650;2022-12-18T08:37:53;46.00;;;16.80;;
47483;SDS011;54076;50.322;18.650;2022-12-18T08:42:54;55.30;;;16.50;;
47483;SDS011;54076;50.322;18.650;2022-12-18T08:48:14;50.90;;;16.30;;
47483;SDS011;54076;50.322;18.650;2022-12-18T08:53:15;54.20;;;18.30;;
47483;SDS011;54076;50.322;18.650;2022-12-18T08:58:16;42.60;;;17.00;;
47483;SDS011;54076;50.322;18.650;2022-12-18T09:03:18;54.50;;;17.60;;
47483;SDS011;54076;50.322;18.650;2022-12-18T09:08:20;77.10;;;24.50;;
47483;SDS011;54076;50.322;18.650;2022-12-18T09:13:21;53.40;;;17.70;;
47483;SDS011;54076;50.322;18.650;2022-12-18T09:18:25;53.20;;;16.80;;
47483;SDS011;54076;50.322;18.650;2022-12-18T09:23:26;60.50;;;16.70;;
47483;SDS011;54076;50.322;18.650;2022-12-18T09:28:27;54.30;;;16.40;;
47483;SDS011;54076;50.322;18.650;2022-12-18T09:33:29;49.00;;;16.60;;
47483;SDS011;54076;50.322;18.650;2022-12-18T09:38:30;56.40;;;17.90;;
47483;SDS011;54076;50.322;18.650;2022-12-18T09:43:45;47.40;;;14.60;;
47483;SDS011;54076;50.322;18.650;2022-12-18T09:48:49;74.00;;;26.60;;
47483;SDS011;54076;50.322;18.650;2022-12-18T09:53:59;46.40;;;14.50;;
47483;SDS011;54076;50.322;18.650;2022-12-18T09:59:27;50.80;;;14.70;;
47483;SDS011;54076;50.322;18.650;2022-12-18T10:04:35;40.20;;;14.10;;
47483;SDS011;54076;50.322;18.650;2022-12-18T10:09:40;38.00;;;12.60;;
47483;SDS011;54076;50.322;18.650;2022-12-18T10:20:35;39.80;;;13.50;;
47483;SDS011;54076;50.322;18.650;2022-12-18T10:26:14;41.00;;;14.10;;
47483;SDS011;54076;50.322;18.650;2022-12-18T10:31:23;40.70;;;13.00;;
47483;SDS011;54076;50.322;18.650;2022-12-18T10:36:25;40.80;;;13.90;;
47483;SDS011;54076;50.322;18.650;2022-12-18T10:41:26;44.70;;;14.80;;
47483;SDS011;54076;50.322;18.650;2022-12-18T10:46:28;43.60;;;13.70;;
47483;SDS011;54076;50.322;18.650;2022-12-18T10:51:34;40.70;;;14.60;;
47483;SDS011;54076;50.322;18.650;2022-12-18T10:56:38;49.80;;;16.50;;
47483;SDS011;54076;50.322;18.650;2022-12-18T11:01:54;44.00;;;14.50;;
47483;SDS011;54076;50.322;18.650;2022-12-18T11:07:07;42.10;;;15.00;;
47483;SDS011;54076;50.322;18.650;2022-12-18T11:17:31;56.70;;;20.10;;
47483;SDS011;54076;50.322;18.650;2022-12-18T11:22:35;59.10;;;20.00;;
47483;SDS011;54076;50.322;18.650;2022-12-18T11:38:43;54.40;;;18.50;;
47483;SDS011;54076;50.322;18.650;2022-12-18T11:43:58;53.30;;;20.20;;
47483;SDS011;54076;50.322;18.650;2022-12-18T11:49:06;58.90;;;19.70;;
47483;SDS011;54076;50.322;18.650;2022-12-18T11:54:14;53.40;;;18.70;;
47483;SDS011;54076;50.322;18.650;2022-12-18T11:59:55;48.80;;;18.50;;
47483;SDS011;54076;50.322;18.650;2022-12-18T12:21:52;55.40;;;18.70;;
47483;SDS011;54076;50.322;18.650;2022-12-18T12:33:09;58.50;;;21.20;;
47483;SDS011;54076;50.322;18.650;2022-12-18T12:38:35;59.20;;;21.50;;
47483;SDS011;54076;50.322;18.650;2022-12-18T12:43:45;56.90;;;21.80;;
47483;SDS011;54076;50.322;18.650;2022-12-18T12:53:57;59.30;;;20.80;;
47483;SDS011;54076;50.322;18.650;2022-12-18T12:59:19;62.60;;;22.70;;
47483;SDS011;54076;50.322;18.650;2022-12-18T13:04:33;66.50;;;22.60;;
47483;SDS011;54076;50.322;18.650;2022-12-18T13:15:28;61.10;;;22.90;;
47483;SDS011;54076;50.322;18.650;2022-12-18T13:31:01;70.70;;;22.70;;
47483;SDS011;54076;50.322;18.650;2022-12-18T13:46:18;62.40;;;21.20;;
47483;SDS011;54076;50.322;18.650;2022-12-18T13:51:24;64.20;;;22.50;;
47483;SDS011;54076;50.322;18.650;2022-12-18T13:56:31;59.80;;;21.40;;
47483;SDS011;54076;50.322;18.650;2022-12-18T14:01:33;52.60;;;18.40;;
47483;SDS011;54076;50.322;18.650;2022-12-18T14:06:34;50.90;;;17.50;;
47483;SDS011;54076;50.322;18.650;2022-12-18T14:11:35;52.00;;;17.60;;
47483;SDS011;54076;50.322;18.650;2022-12-18T14:16:37;59.80;;;20.20;;
47483;SDS011;54076;50.322;18.650;2022-12-18T14:21:48;63.30;;;19.60;;
47483;SDS011;54076;50.322;18.650;2022-12-18T14:26:51;66.00;;;20.20;;
47483;SDS011;54076;50.322;18.650;2022-12-18T14:37:16;56.70;;;17.80;;
47483;SDS011;54076;50.322;18.650;2022-12-18T14:42:21;54.40;;;20.30;;
47483;SDS011;54076;50.322;18.650;2022-12-18T14:47:22;55.20;;;20.00;;
47483;SDS011;54076;50.322;18.650;2022-12-18T14:52:27;57.20;;;19.90;;
47483;SDS011;54076;50.322;18.650;2022-12-18T14:57:35;57.60;;;20.80;;
47483;SDS011;54076;50.322;18.650;2022-12-18T15:02:38;63.00;;;21.90;;
47483;SDS011;54076;50.322;18.650;2022-12-18T15:07:50;74.60;;;24.90;;
47483;SDS011;54076;50.322;18.650;2022-12-18T15:17:57;63.60;;;22.70;;
47483;SDS011;54076;50.322;18.650;2022-12-18T15:23:02;76.80;;;25.70;;
47483;SDS011;54076;50.322;18.650;2022-12-18T15:28:04;67.20;;;25.10;;
47483;SDS011;54076;50.322;18.650;2022-12-18T15:33:25;75.20;;;25.00;;
47483;SDS011;54076;50.322;18.650;2022-12-18T15:38:27;72.90;;;27.20;;
47483;SDS011;54076;50.322;18.650;2022-12-18T15:43:28;80.60;;;25.70;;
47483;SDS011;54076;50.322;18.650;2022-12-18T15:48:43;91.10;;;28.80;;
47483;SDS011;54076;50.322;18.650;2022-12-18T15:53:47;92.00;;;28.90;;
47483;SDS011;54076;50.322;18.650;2022-12-18T15:58:49;89.50;;;29.60;;
47483;SDS011;54076;50.322;18.650;2022-12-18T16:03:50;101.80;;;30.70;;
47483;SDS011;54076;50.322;18.650;2022-12-18T16:08:51;87.70;;;29.30;;
47483;SDS011;54076;50.322;18.650;2022-12-18T16:13:52;87.50;;;28.60;;
47483;SDS011;54076;50.322;18.650;2022-12-18T16:18:53;89.70;;;29.30;;
47483;SDS011;54076;50.322;18.650;2022-12-18T16:23:54;88.30;;;29.60;;
47483;SDS011;54076;50.322;18.650;2022-12-18T16:28:55;78.70;;;28.20;;
47483;SDS011;54076;50.322;18.650;2022-12-18T16:34:24;101.20;;;30.60;;
47483;SDS011;54076;50.322;18.650;2022-12-18T16:39:28;111.20;;;34.50;;
47483;SDS011;54076;50.322;18.650;2022-12-18T16:44:30;113.40;;;34.20;;
47483;SDS011;54076;50.322;18.650;2022-12-18T16:49:31;111.60;;;34.50;;
47483;SDS011;54076;50.322;18.650;2022-12-18T16:54:33;119.30;;;37.70;;
47483;SDS011;54076;50.322;18.650;2022-12-18T16:59:36;125.50;;;37.80;;
47483;SDS011;54076;50.322;18.650;2022-12-18T17:04:37;116.20;;;37.60;;
47483;SDS011;54076;50.322;18.650;2022-12-18T17:09:38;115.90;;;36.70;;
47483;SDS011;54076;50.322;18.650;2022-12-18T17:14:39;115.40;;;37.50;;
47483;SDS011;54076;50.322;18.650;2022-12-18T17:19:40;118.00;;;37.20;;
47483;SDS011;54076;50.322;18.650;2022-12-18T17:24:41;118.10;;;38.60;;
47483;SDS011;54076;50.322;18.650;2022-12-18T17:29:42;117.50;;;38.90;;
47483;SDS011;54076;50.322;18.650;2022-12-18T17:34:43;114.10;;;37.50;;
47483;SDS011;54076;50.322;18.650;2022-12-18T17:39:45;108.70;;;37.20;;
47483;SDS011;54076;50.322;18.650;2022-12-18T17:44:46;125.80;;;40.10;;
47483;SDS011;54076;50.322;18.650;2022-12-18T17:49:47;119.10;;;42.00;;
47483;SDS011;54076;50.322;18.650;2022-12-18T17:54:48;137.50;;;43.00;;
47483;SDS011;54076;50.322;18.650;2022-12-18T17:59:49;135.90;;;42.80;;
47483;SDS011;54076;50.322;18.650;2022-12-18T18:04:49;138.50;;;45.30;;
47483;SDS011;54076;50.322;18.650;2022-12-18T18:09:51;142.40;;;46.80;;
47483;SDS011;54076;50.322;18.650;2022-12-18T18:14:52;143.60;;;43.60;;
47483;SDS011;54076;50.322;18.650;2022-12-18T18:19:52;135.00;;;45.20;;
47483;SDS011;54076;50.322;18.650;2022-12-18T18:24:53;136.00;;;40.60;;
47483;SDS011;54076;50.322;18.650;2022-12-18T18:29:54;135.30;;;41.80;;
47483;SDS011;54076;50.322;18.650;2022-12-18T18:34:56;128.80;;;39.60;;
47483;SDS011;54076;50.322;18.650;2022-12-18T18:39:57;116.10;;;36.30;;
47483;SDS011;54076;50.322;18.650;2022-12-18T18:44:58;118.70;;;37.10;;
47483;SDS011;54076;50.322;18.650;2022-12-18T18:49:59;123.80;;;37.10;;
47483;SDS011;54076;50.322;18.650;2022-12-18T18:55:00;114.70;;;34.00;;
47483;SDS011;54076;50.322;18.650;2022-12-18T19:00:01;97.70;;;33.20;;
47483;SDS011;54076;50.322;18.650;2022-12-18T19:05:03;111.20;;;34.90;;
47483;SDS011;54076;50.322;18.650;2022-12-18T19:10:05;97.10;;;31.50;;
47483;SDS011;54076;50.322;18.650;2022-12-18T19:15:07;99.40;;;32.20;;
47483;SDS011;54076;50.322;18.650;2022-12-18T19:20:09;95.10;;;30.50;;
47483;SDS011;54076;50.322;18.650;2022-12-18T19:25:10;83.40;;;29.50;;
47483;SDS011;54076;50.322;18.650;2022-12-18T19:30:11;97.20;;;29.70;;
47483;SDS011;54076;50.322;18.650;2022-12-18T19:35:12;82.10;;;27.20;;
47483;SDS011;54076;50.322;18.650;2022-12-18T19:40:13;88.90;;;28.50;;
47483;SDS011;54076;50.322;18.650;2022-12-18T19:45:14;76.90;;;27.20;;
47483;SDS011;54076;50.322;18.650;2022-12-18T19:50:16;80.50;;;27.10;;
47483;SDS011;54076;50.322;18.650;2022-12-18T19:55:17;95.50;;;30.40;;
47483;SDS011;54076;50.322;18.650;2022-12-18T20:00:18;101.90;;;29.50;;
47483;SDS011;54076;50.322;18.650;2022-12-18T20:05:19;90.20;;;29.90;;
47483;SDS011;54076;50.322;18.650;2022-12-18T20:10:24;89.70;;;30.50;;
47483;SDS011;54076;50.322;18.650;2022-12-18T20:15:25;90.30;;;30.60;;
47483;SDS011;54076;50.322;18.650;2022-12-18T20:20:26;95.30;;;31.60;;
47483;SDS011;54076;50.322;18.650;2022-12-18T20:25:27;108.00;;;32.00;;
47483;SDS011;54076;50.322;18.650;2022-12-18T20:30:28;110.40;;;35.30;;
47483;SDS011;54076;50.322;18.650;2022-12-18T20:35:33;106.10;;;33.50;;
47483;SDS011;54076;50.322;18.650;2022-12-18T20:40:34;92.90;;;29.40;;
47483;SDS011;54076;50.322;18.650;2022-12-18T20:45:35;88.40;;;29.70;;
47483;SDS011;54076;50.322;18.650;2022-12-18T20:50:37;90.90;;;28.60;;
47483;SDS011;54076;50.322;18.650;2022-12-18T20:55:41;87.60;;;28.90;;
47483;SDS011;54076;50.322;18.650;2022-12-18T21:00:42;100.20;;;32.50;;
47483;SDS011;54076;50.322;18.650;2022-12-18T21:05:44;92.30;;;30.60;;
47483;SDS011;54076;50.322;18.650;2022-12-18T21:10:45;106.30;;;31.90;;
47483;SDS011;54076;50.322;18.650;2022-12-18T21:15:46;104.30;;;30.70;;
47483;SDS011;54076;50.322;18.650;2022-12-18T21:20:47;105.00;;;32.20;;
47483;SDS011;54076;50.322;18.650;2022-12-18T21:25:48;88.00;;;28.10;;
47483;SDS011;54076;50.322;18.650;2022-12-18T21:30:49;102.30;;;31.50;;
47483;SDS011;54076;50.322;18.650;2022-12-18T21:35:50;90.10;;;28.20;;
47483;SDS011;54076;50.322;18.650;2022-12-18T21:40:51;84.80;;;28.40;;
47483;SDS011;54076;50.322;18.650;2022-12-18T21:45:55;82.00;;;26.40;;
47483;SDS011;54076;50.322;18.650;2022-12-18T21:50:56;74.80;;;25.10;;
47483;SDS011;54076;50.322;18.650;2022-12-18T21:55:57;76.00;;;25.30;;
47483;SDS011;54076;50.322;18.650;2022-12-18T22:00:59;75.80;;;24.50;;
47483;SDS011;54076;50.322;18.650;2022-12-18T22:06:00;70.40;;;22.10;;
47483;SDS011;54076;50.322;18.650;2022-12-18T22:11:01;83.20;;;23.80;;
47483;SDS011;54076;50.322;18.650;2022-12-18T22:16:02;67.10;;;23.00;;
47483;SDS011;54076;50.322;18.650;2022-12-18T22:21:04;65.90;;;23.20;;
47483;SDS011;54076;50.322;18.650;2022-12-18T22:26:06;61.10;;;20.30;;
47483;SDS011;54076;50.322;18.650;2022-12-18T22:31:09;63.20;;;20.20;;
47483;SDS011;54076;50.322;18.650;2022-12-18T22:36:10;65.40;;;19.80;;
47483;SDS011;54076;50.322;18.650;2022-12-18T22:41:11;59.80;;;20.50;;
47483;SDS011;54076;50.322;18.650;2022-12-18T22:46:16;63.50;;;20.30;;
47483;SDS011;54076;50.322;18.650;2022-12-18T22:51:19;58.00;;;19.00;;
47483;SDS011;54076;50.322;18.650;2022-12-18T22:56:20;59.00;;;20.20;;
47483;SDS011;54076;50.322;18.650;2022-12-18T23:01:23;60.80;;;21.20;;
47483;SDS011;54076;50.322;18.650;2022-12-18T23:06:27;68.20;;;21.00;;
47483;SDS011;54076;50.322;18.650;2022-12-18T23:11:28;55.20;;;19.00;;
47483;SDS011;54076;50.322;18.650;2022-12-18T23:16:29;64.50;;;20.30;;
47483;SDS011;54076;50.322;18.650;2022-12-18T23:21:30;54.70;;;20.20;;
47483;SDS011;54076;50.322;18.650;2022-12-18T23:26:31;55.40;;;18.80;;
47483;SDS011;54076;50.322;18.650;2022-12-18T23:31:34;58.10;;;19.90;;
47483;SDS011;54076;50.322;18.650;2022-12-18T23:36:38;51.40;;;17.50;;
47483;SDS011;54076;50.322;18.650;2022-12-18T23:41:39;57.10;;;21.30;;
47483;SDS011;54076;50.322;18.650;2022-12-18T23:46:40;61.70;;;21.20;;
47483;SDS011;54076;50.322;18.650;2022-12-18T23:51:41;63.80;;;20.10;;
47483;SDS011;54076;50.322;18.650;2022-12-18T23:56:42;60.80;;;21.20;;
